WetterOnline ( https://www.wetteronline.at )

Wetter aktuell Pfälzer Wald

Aktuelles Wetter: Weinbiet/Pfalz (557m)

6-stündlich | Neueste Meldungen
Ortszeit Temperatur Wetter
Mi, 18.05. 8:00 15.9° C leicht bewölkt
Mi, 18.05. 2:00 16.8° C wolkenlos
Di, 17.05. 20:00 20.6° C wolkig
Di, 17.05. 14:00 24.2° C wolkig
Di, 17.05. 8:00 16.0° C wolkig
Di, 17.05. 2:00 13.7° C wolkenlos
Mo, 16.05. 20:00 17.4° C wolkig
Mo, 16.05. 14:00 19.6° C bewölkt
Ortszeit Temperatur Wetter
Mi, 18.05. 11:00 21.7° C leicht bewölkt
Mi, 18.05. 10:50 21.7° C wolkig
Mi, 18.05. 10:40 21.8° C bedeckt
Mi, 18.05. 10:30 20.7° C wolkig
Mi, 18.05. 10:20 20.7° C wolkig
Mi, 18.05. 10:10 20.8° C bedeckt
Mi, 18.05. 10:00 21.2° C leicht bewölkt
Mi, 18.05. 9:30 19.1° C wolkig
Mi, 18.05. 9:00 17.8° C leicht bewölkt
Mi, 18.05. 8:30 16.7° C wolkig
Mi, 18.05. 8:00 15.9° C leicht bewölkt
Ortszeit Relative Feuchte Sichtweite
Mi, 18.05. 8:00 70% 35 km
Mi, 18.05. 2:00 66% 55 km
Di, 17.05. 20:00 45% 65 km
Di, 17.05. 14:00 45% 45 km
Di, 17.05. 8:00 77% 45 km
Di, 17.05. 2:00 89% 35 km
Mo, 16.05. 20:00 75% 55 km
Mo, 16.05. 14:00 58% 30 km
Ortszeit Relative Feuchte Sichtweite
Mi, 18.05. 11:00 51% 50 km
Mi, 18.05. 10:50 51% -
Mi, 18.05. 10:40 52% -
Mi, 18.05. 10:30 54% 40 km
Mi, 18.05. 10:20 54% -
Mi, 18.05. 10:10 54% -
Mi, 18.05. 10:00 54% 60 km
Mi, 18.05. 9:30 60% 55 km
Mi, 18.05. 9:00 63% 65 km
Mi, 18.05. 8:30 67% 60 km
Mi, 18.05. 8:00 70% 35 km
Ortszeit Niederschlagsmenge Niederschlagsart
Mi, 18.05. 8:00 0.0 l/m2 in 12 Std. -
Mi, 18.05. 2:00 0.0 l/m2 in 6 Std. -
Di, 17.05. 20:00 0.0 l/m2 in 12 Std. -
Di, 17.05. 14:00 0.0 l/m2 in 6 Std. -
Di, 17.05. 8:00 0.0 l/m2 in 12 Std. -
Di, 17.05. 2:00 0.0 l/m2 in 6 Std. -
Mo, 16.05. 20:00 0.1 l/m2 in 12 Std. Regen
Mo, 16.05. 14:00 0.0 l/m2 in 6 Std. -
Ortszeit Niederschlagsmenge Niederschlagsart
Mi, 18.05. 11:00 0.0 l/m2 in 1 Std. -
Mi, 18.05. 10:50 keine Meldung -
Mi, 18.05. 10:40 keine Meldung -
Mi, 18.05. 10:30 0.0 l/m2 in 1 Std. -
Mi, 18.05. 10:20 keine Meldung -
Mi, 18.05. 10:10 keine Meldung -
Mi, 18.05. 10:00 0.0 l/m2 in 1 Std. -
Mi, 18.05. 9:30 0.0 l/m2 in 1 Std. -
Mi, 18.05. 9:00 0.0 l/m2 in 1 Std. -
Mi, 18.05. 8:30 0.0 l/m2 in 1 Std. -
Mi, 18.05. 8:00 0.0 l/m2 in 1 Std. -
Ortszeit Stärke Spitze Richtung
km/h Bft. km/h Grad Sektor
Mi, 18.05. 8:00 14 3 32 90° O
Mi, 18.05. 2:00 22 4 29 110° O
Di, 17.05. 20:00 14 3 29 80° O
Di, 17.05. 14:00 13 3 26 90° O
Di, 17.05. 8:00 9 2 35 110° O
Di, 17.05. 2:00 26 4 43 270° W
Mo, 16.05. 20:00 31 5 72 270° W
Mo, 16.05. 14:00 47 6 83 240° SW
Ortszeit Stärke Spitze Richtung
km/h Bft. km/h Grad Sektor
Mi, 18.05. 11:00 9 2 19 110° O
Mi, 18.05. 10:50 9 2 - 110° O
Mi, 18.05. 10:40 7 2 - 90° O
Mi, 18.05. 10:30 9 2 19 70° O
Mi, 18.05. 10:20 9 2 - 70° O
Mi, 18.05. 10:10 11 2 - 70° O
Mi, 18.05. 10:00 7 2 18 90° O
Mi, 18.05. 9:30 9 2 19 90° O
Mi, 18.05. 9:00 13 3 20 100° O
Mi, 18.05. 8:30 11 2 18 100° O
Mi, 18.05. 8:00 14 3 25 90° O
Ortszeit Untergrenze Bedeckung Gattung
total tief tief mittel hoch
Mi, 18.05. 8:00 9000 m 8/8 0/8 - - -
Mi, 18.05. 2:00 - 0/8 0/8 - - -
Di, 17.05. 20:00 9000 m 8/8 0/8 - - -
Di, 17.05. 14:00 1200 m 7/8 2/8 - - -
Di, 17.05. 8:00 6600 m 8/8 4/8 - - -
Di, 17.05. 2:00 - 0/8 0/8 - - -
Mo, 16.05. 20:00 2700 m 7/8 4/8 - - -
Mo, 16.05. 14:00 1020 m 8/8 4/8 - - -
Ortszeit Bedeckungsgrad in Achtel und Wolkenuntergrenze
Mi, 18.05. 11:00 8(10500m)
Mi, 18.05. 10:50 8(10500m)
Mi, 18.05. 10:40 8
Mi, 18.05. 10:30 8(10500m)
Mi, 18.05. 10:20 8(10500m)
Mi, 18.05. 10:10 8
Mi, 18.05. 10:00 1(7500m) 5(8400m) 8(10500m)
Mi, 18.05. 9:30 8(10500m)
Mi, 18.05. 9:00 8(10500m)
Mi, 18.05. 8:30 1(9000m) 8(10500m)
Mi, 18.05. 8:00 7(9000m) 7(9000m) 8(10500m)
Ortszeit Luftdruck NN (hPa) Tendenz (hPa in 3 Std.)
Mi, 18.05. 8:00 1023 + 1,0
Mi, 18.05. 2:00 1021 0,0
Di, 17.05. 20:00 1019 - 0,2
Di, 17.05. 14:00 1020 - 0,8
Di, 17.05. 8:00 1022 + 0,8
Di, 17.05. 2:00 1021 + 0,1
Mo, 16.05. 20:00 1019 + 1,1
Mo, 16.05. 14:00 1018 + 1,0
Ortszeit Luftdruck NN (hPa) Tendenz (hPa in 3 Std.)
Mi, 18.05. 11:00 1022 + 0,6
Mi, 18.05. 10:50 1022 keine Meldung
Mi, 18.05. 10:40 1022 keine Meldung
Mi, 18.05. 10:30 1022 + 0,8
Mi, 18.05. 10:20 1022 keine Meldung
Mi, 18.05. 10:10 1022 keine Meldung
Mi, 18.05. 10:00 1022 + 0,9
Mi, 18.05. 9:30 1022 + 0,8
Mi, 18.05. 9:00 1022 + 0,8
Mi, 18.05. 8:30 1022 + 0,9
Mi, 18.05. 8:00 1023 + 1,0
Ortszeit Schneehöhe (cm)
Mi, 18.05. 8:00 0
Mi, 18.05. 2:00 0
Di, 17.05. 20:00 0
Di, 17.05. 14:00 0
Di, 17.05. 8:00 0
Di, 17.05. 2:00 0
Mo, 16.05. 20:00 0
Mo, 16.05. 14:00 0
Ortszeit Schneehöhe (cm)
Mi, 18.05. 11:00 0
Mi, 18.05. 10:50 0
Mi, 18.05. 10:40 0
Mi, 18.05. 10:30 0
Mi, 18.05. 10:20 0
Mi, 18.05. 10:10 0
Mi, 18.05. 10:00 0
Mi, 18.05. 9:30 0
Mi, 18.05. 9:00 0
Mi, 18.05. 8:30 0
Mi, 18.05. 8:00 0
Link zu dieser Seite / Seite empfehlen

Das Wetter in ...